Time;durP1;ratioP1;P1;durP2;ratioP2;P2;SDS_P1;SDS_P2;PMS_P1;PMS_P2;Temp;Humidity;BMP_temperature;BMP_pressure;BME280_temperature;BME280_humidity;BME280_pressure;Samples;Min_cycle;Max_cycle;Signal;HPM_P1;HPM_P2
2021/10/17 00:00:40;;;;;;;6.10;5.03;;;;;;;;;;5036620;28;20459;-86
2021/10/17 00:03:08;;;;;;;8.17;4.87;;;10.10;99.90;;;;;;5039158;28;20431;-86
2021/10/17 00:05:35;;;;;;;4.30;3.77;;;9.90;99.90;;;;;;5038741;28;20453;-86
2021/10/17 00:08:03;;;;;;;6.93;4.30;;;;;;;;;;5037981;28;20468;-86
2021/10/17 00:10:33;;;;;;;5.80;4.60;;;10.00;99.90;;;;;;5034305;28;20470;-86
2021/10/17 00:13:02;;;;;;;6.40;4.60;;;10.00;99.90;;;;;;5031266;28;20432;-86
2021/10/17 00:15:31;;;;;;;8.40;4.23;;;10.10;99.90;;;;;;5028435;28;20524;-87
2021/10/17 00:17:59;;;;;;;10.03;4.60;;;10.00;99.90;;;;;;5032427;28;20443;-88
2021/10/17 00:20:28;;;;;;;4.17;3.80;;;10.10;99.90;;;;;;5040542;28;20455;-90
2021/10/17 00:22:55;;;;;;;4.70;3.47;;;;;;;;;;5032281;28;20419;-86
2021/10/17 00:25:22;;;;;;;5.10;4.40;;;;;;;;;;5023876;28;20448;-86
2021/10/17 00:27:49;;;;;;;6.10;4.00;;;10.10;99.90;;;;;;5028870;28;20439;-86
2021/10/17 00:30:16;;;;;;;7.30;3.83;;;;;;;;;;5027956;28;20455;-87
2021/10/17 00:32:48;;;;;;;5.60;3.80;;;10.10;99.90;;;;;;5027063;28;20426;-87
2021/10/17 00:35:16;;;;;;;7.80;5.47;;;;;;;;;;5037886;28;20447;-86
2021/10/17 00:37:44;;;;;;;6.83;4.23;;;10.10;99.90;;;;;;5038656;28;20498;-88
2021/10/17 00:40:14;;;;;;;4.23;3.70;;;10.00;99.90;;;;;;5035627;28;20510;-87
2021/10/17 00:42:41;;;;;;;4.00;3.63;;;;;;;;;;5026464;28;20444;-87
2021/10/17 00:45:10;;;;;;;6.20;4.40;;;10.00;99.90;;;;;;5025824;28;20440;-87
2021/10/17 00:47:37;;;;;;;6.53;3.60;;;10.00;99.90;;;;;;5025680;28;20442;-87
2021/10/17 00:50:05;;;;;;;12.10;6.60;;;10.00;99.90;;;;;;5025153;28;20497;-87
2021/10/17 00:52:32;;;;;;;7.10;3.90;;;10.00;99.90;;;;;;5024660;28;20422;-87
2021/10/17 00:55:00;;;;;;;9.50;4.57;;;10.00;99.90;;;;;;5025526;28;20800;-87
2021/10/17 00:57:27;;;;;;;4.17;3.77;;;;;;;;;;5037543;28;20506;-86
2021/10/17 00:59:54;;;;;;;7.50;3.60;;;10.10;99.90;;;;;;5020549;28;20448;-87
2021/10/17 01:02:20;;;;;;;3.60;3.30;;;10.10;99.90;;;;;;5020676;28;20465;-86
2021/10/17 01:04:47;;;;;;;3.77;3.37;;;10.10;99.90;;;;;;5025238;28;20427;-87
2021/10/17 01:07:14;;;;;;;4.93;4.40;;;10.10;99.90;;;;;;5026541;28;20449;-86
2021/10/17 01:09:40;;;;;;;6.30;3.80;;;;;;;;;;5024948;28;20450;-86
2021/10/17 01:12:09;;;;;;;3.67;3.37;;;10.10;99.90;;;;;;5025408;28;20452;-86
2021/10/17 01:14:36;;;;;;;7.23;3.50;;;;;;;;;;5025614;28;20419;-87
2021/10/17 01:17:04;;;;;;;6.23;4.60;;;10.10;99.90;;;;;;5024685;28;20446;-87
2021/10/17 01:19:31;;;;;;;7.73;4.40;;;;;;;;;;5025524;28;20434;-87
2021/10/17 01:21:59;;;;;;;9.47;3.90;;;10.10;99.90;;;;;;5024545;28;20419;-87
2021/10/17 01:24:26;;;;;;;8.23;4.30;;;10.00;99.90;;;;;;5023911;28;20433;-86
2021/10/17 01:26:52;;;;;;;5.07;4.40;;;10.00;99.90;;;;;;5023948;28;20468;-85
2021/10/17 01:29:19;;;;;;;8.37;3.30;;;10.10;99.90;;;;;;5024749;28;20411;-86
2021/10/17 01:31:52;;;;;;;11.00;3.80;;;9.90;99.90;;;;;;5023308;28;20942;-86
2021/10/17 01:34:19;;;;;;;10.40;4.03;;;9.70;99.90;;;;;;5023881;28;20455;-86
2021/10/17 01:36:46;;;;;;;6.27;4.50;;;10.00;99.90;;;;;;5022869;28;20834;-86
2021/10/17 01:39:16;;;;;;;9.00;4.70;;;10.00;99.90;;;;;;5023522;28;20507;-87
2021/10/17 01:41:43;;;;;;;11.40;5.77;;;;;;;;;;5024019;28;20407;-86
2021/10/17 01:44:12;;;;;;;6.17;4.70;;;10.00;99.90;;;;;;5023990;28;20473;-86
2021/10/17 01:46:40;;;;;;;5.97;5.37;;;9.90;99.90;;;;;;5024422;28;20439;-86
2021/10/17 01:49:08;;;;;;;8.83;4.50;;;10.00;99.90;;;;;;5024025;28;20418;-86
2021/10/17 01:51:35;;;;;;;4.90;3.67;;;10.00;99.90;;;;;;5031199;28;20445;-86
2021/10/17 01:54:03;;;;;;;4.57;3.43;;;10.00;99.90;;;;;;5036356;28;20459;-86
2021/10/17 01:56:31;;;;;;;5.60;4.23;;;10.00;99.90;;;;;;5024686;28;20495;-87
2021/10/17 01:58:58;;;;;;;5.43;4.17;;;;;;;;;;5024953;28;20469;-87
2021/10/17 02:01:26;;;;;;;6.10;4.40;;;10.00;99.90;;;;;;5024867;28;20461;-86
2021/10/17 02:03:52;;;;;;;5.90;4.80;;;10.00;99.90;;;;;;5023584;28;20476;-86
2021/10/17 02:06:19;;;;;;;9.00;4.17;;;;;;;;;;5023757;28;20439;-87
2021/10/17 02:08:48;;;;;;;6.27;3.93;;;;;;;;;;5028786;28;20432;-89
2021/10/17 02:11:15;;;;;;;4.43;3.53;;;;;;;;;;5029882;28;20402;-86
2021/10/17 02:13:43;;;;;;;6.40;4.73;;;9.80;99.90;;;;;;5020190;28;20454;-86
2021/10/17 02:16:09;;;;;;;6.53;4.40;;;9.80;99.90;;;;;;5022038;28;20462;-86
2021/10/17 02:18:36;;;;;;;6.90;3.97;;;9.90;99.90;;;;;;5023913;28;20448;-87
2021/10/17 02:21:04;;;;;;;5.90;3.73;;;9.80;99.90;;;;;;5023183;28;20414;-87
2021/10/17 02:23:31;;;;;;;4.67;3.23;;;9.80;99.90;;;;;;5021586;28;20452;-87
2021/10/17 02:25:58;;;;;;;5.00;3.80;;;10.10;99.90;;;;;;5022918;28;20448;-87
2021/10/17 02:28:25;;;;;;;5.50;4.37;;;9.70;99.90;;;;;;5021444;28;20936;-87
2021/10/17 02:30:53;;;;;;;5.00;3.67;;;9.80;99.90;;;;;;5022894;28;20448;-87
2021/10/17 02:33:19;;;;;;;5.70;3.83;;;9.70;99.90;;;;;;5025840;28;20947;-87
2021/10/17 02:35:46;;;;;;;13.07;3.50;;;;;;;;;;5035685;28;20518;-91
2021/10/17 02:38:13;;;;;;;4.60;3.03;;;;;;;;;;5036818;28;20444;-86
2021/10/17 02:40:40;;;;;;;8.03;3.63;;;;;;;;;;5031143;28;20453;-87
2021/10/17 02:43:07;;;;;;;5.40;3.27;;;;;;;;;;5020555;28;20426;-87
2021/10/17 02:45:34;;;;;;;5.80;3.70;;;9.70;99.90;;;;;;5021169;28;20423;-87
2021/10/17 02:48:02;;;;;;;5.80;3.90;;;9.70;99.90;;;;;;5024156;28;21071;-87
2021/10/17 02:50:29;;;;;;;4.77;3.83;;;9.70;99.90;;;;;;5018796;28;20441;-86
2021/10/17 02:52:55;;;;;;;4.90;3.97;;;9.70;99.90;;;;;;5022542;28;20468;-86
2021/10/17 02:55:22;;;;;;;5.00;3.23;;;;;;;;;;5031961;28;20505;-86
2021/10/17 02:57:49;;;;;;;5.70;4.00;;;9.60;99.90;;;;;;5025318;28;20807;-87
2021/10/17 03:00:17;;;;;;;4.70;2.80;;;9.50;99.90;;;;;;5021878;28;20870;-87
2021/10/17 03:02:44;;;;;;;4.47;3.50;;;;;;;;;;5025853;28;20486;-88
2021/10/17 03:05:12;;;;;;;4.70;3.77;;;9.50;99.90;;;;;;5025582;28;20444;-86
2021/10/17 03:07:39;;;;;;;6.83;3.70;;;9.30;99.90;;;;;;5027409;28;20473;-87
2021/10/17 03:10:07;;;;;;;10.60;3.37;;;9.50;99.90;;;;;;5037272;28;20406;-86
2021/10/17 03:12:34;;;;;;;4.50;3.20;;;;;;;;;;5029688;28;20440;-87
2021/10/17 03:15:01;;;;;;;4.37;3.43;;;;;;;;;;5030220;28;20946;-87
2021/10/17 03:17:28;;;;;;;7.63;3.77;;;9.50;99.90;;;;;;5033109;28;20472;-87
2021/10/17 03:19:55;;;;;;;4.70;3.10;;;9.50;99.90;;;;;;5034715;28;20436;-87
2021/10/17 03:22:23;;;;;;;3.53;3.23;;;9.80;99.90;;;;;;5025991;28;20427;-87
2021/10/17 03:24:49;;;;;;;4.83;3.23;;;9.90;99.90;;;;;;5024176;28;20535;-87
2021/10/17 03:27:16;;;;;;;6.53;3.50;;;9.20;99.90;;;;;;5024960;28;20449;-86
2021/10/17 03:29:42;;;;;;;4.70;3.30;;;9.50;99.90;;;;;;5027107;28;20454;-87
2021/10/17 03:32:10;;;;;;;8.30;3.73;;;9.90;99.90;;;;;;5026453;28;20429;-87
2021/10/17 03:34:36;;;;;;;8.50;3.73;;;;;;;;;;5026712;28;20539;-87
2021/10/17 03:37:03;;;;;;;4.17;3.23;;;9.30;99.90;;;;;;5025688;28;20513;-87
2021/10/17 03:39:31;;;;;;;8.13;3.77;;;9.40;99.90;;;;;;5026820;28;20455;-87
2021/10/17 03:41:58;;;;;;;7.90;3.10;;;9.30;99.90;;;;;;5025769;28;20931;-87
2021/10/17 03:44:25;;;;;;;8.30;3.03;;;;;;;;;;5025779;28;20452;-87
2021/10/17 03:46:52;;;;;;;5.03;3.30;;;;;;;;;;5025642;28;20467;-87
2021/10/17 03:49:19;;;;;;;10.50;3.70;;;;;;;;;;5026057;28;20426;-87
2021/10/17 03:51:46;;;;;;;4.67;3.40;;;;;;;;;;5025390;28;20473;-86
2021/10/17 03:54:13;;;;;;;7.60;3.53;;;;;;;;;;5025424;28;20448;-87
2021/10/17 03:56:41;;;;;;;3.07;2.80;;;9.50;99.90;;;;;;5024580;28;20514;-87
2021/10/17 03:59:07;;;;;;;3.53;3.17;;;9.40;99.90;;;;;;5031096;28;20410;-86
2021/10/17 04:01:34;;;;;;;4.13;3.23;;;;;;;;;;5035521;28;20482;-86
2021/10/17 04:04:01;;;;;;;10.33;2.97;;;9.30;99.90;;;;;;5032185;28;20453;-87
2021/10/17 04:06:27;;;;;;;6.40;3.60;;;9.30;99.90;;;;;;5026481;28;20998;-87
2021/10/17 04:08:54;;;;;;;7.47;3.20;;;9.20;99.90;;;;;;5026853;28;20418;-87
2021/10/17 04:11:21;;;;;;;5.40;4.33;;;;;;;;;;5027837;28;20476;-87
2021/10/17 04:13:49;;;;;;;3.30;3.00;;;9.10;99.90;;;;;;5030912;28;20443;-87
2021/10/17 04:16:15;;;;;;;10.00;4.20;;;9.10;99.90;;;;;;5035082;28;20477;-86
2021/10/17 04:18:42;;;;;;;6.30;3.90;;;8.90;99.90;;;;;;5026849;28;20418;-86
2021/10/17 04:21:09;;;;;;;4.60;2.93;;;;;;;;;;5039142;28;20441;-86
2021/10/17 04:23:35;;;;;;;5.47;3.97;;;8.90;99.90;;;;;;5026919;28;20452;-87
2021/10/17 04:26:02;;;;;;;5.90;3.23;;;8.70;99.90;;;;;;5025717;28;20491;-87
2021/10/17 04:28:28;;;;;;;7.30;4.03;;;8.70;99.90;;;;;;5025111;28;20422;-87
2021/10/17 04:30:56;;;;;;;5.10;3.10;;;8.60;99.90;;;;;;5025975;28;20478;-87
2021/10/17 04:33:23;;;;;;;5.40;3.47;;;8.60;99.90;;;;;;5027568;28;20478;-86
2021/10/17 04:35:50;;;;;;;9.57;3.75;;;8.80;99.90;;;;;;5026556;28;20514;-86
2021/10/17 04:38:17;;;;;;;7.07;3.70;;;8.50;99.90;;;;;;5025554;28;20240;-85
2021/10/17 04:40:45;;;;;;;11.90;4.13;;;8.50;99.90;;;;;;5025894;28;20440;-86
2021/10/17 04:43:13;;;;;;;6.70;3.60;;;8.40;99.90;;;;;;5026875;28;20426;-86
2021/10/17 04:45:42;;;;;;;6.53;3.53;;;8.60;99.90;;;;;;5024915;28;20448;-86
2021/10/17 04:48:10;;;;;;;8.33;4.43;;;8.30;99.90;;;;;;5031150;28;20431;-86
2021/10/17 04:50:36;;;;;;;6.82;3.65;;;8.30;99.90;;;;;;5039846;28;20450;-89
2021/10/17 04:53:03;;;;;;;6.93;4.03;;;8.40;99.90;;;;;;5033461;28;20251;-86
2021/10/17 04:55:30;;;;;;;4.97;3.50;;;8.30;99.90;;;;;;5024967;28;20479;-85
2021/10/17 04:57:57;;;;;;;11.60;3.87;;;8.40;99.90;;;;;;5025917;28;20544;-87
2021/10/17 05:00:23;;;;;;;3.87;3.23;;;8.40;99.90;;;;;;5023618;28;20453;-85
2021/10/17 05:02:54;;;;;;;5.10;3.47;;;8.50;99.90;;;;;;5025706;28;20434;-85
2021/10/17 05:05:24;;;;;;;6.83;4.63;;;8.30;99.90;;;;;;5024595;28;20436;-88
2021/10/17 05:07:51;;;;;;;7.33;3.60;;;8.10;99.90;;;;;;5031693;28;20456;-89
2021/10/17 05:10:18;;;;;;;6.23;3.20;;;8.30;99.90;;;;;;5024029;28;20451;-85
2021/10/17 05:12:50;;;;;;;5.43;2.77;;;8.10;99.90;;;;;;5021234;28;20473;-86
2021/10/17 05:15:17;;;;;;;5.90;3.30;;;;;;;;;;5021621;28;20546;-86
2021/10/17 05:17:44;;;;;;;10.70;3.47;;;;;;;;;;5023324;28;20474;-87
2021/10/17 05:20:11;;;;;;;4.03;3.50;;;8.10;99.90;;;;;;5023866;28;20448;-87
2021/10/17 05:22:40;;;;;;;3.90;3.13;;;8.10;99.90;;;;;;5023831;28;20502;-87
2021/10/17 05:25:07;;;;;;;7.07;3.67;;;;;;;;;;5028989;28;20495;-87
2021/10/17 05:27:34;;;;;;;10.32;3.30;;;8.00;99.90;;;;;;5031045;28;20435;-86
2021/10/17 05:30:01;;;;;;;6.93;4.47;;;8.00;99.90;;;;;;5023744;28;20216;-87
2021/10/17 05:32:28;;;;;;;8.93;3.47;;;;;;;;;;5021530;28;20491;-86
2021/10/17 05:34:57;;;;;;;11.13;4.20;;;8.40;99.90;;;;;;5035544;28;20446;-87
2021/10/17 05:37:24;;;;;;;7.37;3.17;;;8.00;99.90;;;;;;5028424;28;20466;-87
2021/10/17 05:39:52;;;;;;;4.32;3.90;;;8.10;99.90;;;;;;5033022;28;20444;-86
2021/10/17 05:42:18;;;;;;;5.53;4.50;;;8.00;99.90;;;;;;5036710;28;20200;-86
2021/10/17 05:44:45;;;;;;;8.77;4.50;;;8.00;99.90;;;;;;5034044;28;20437;-87
2021/10/17 05:47:11;;;;;;;4.22;3.78;;;8.10;99.90;;;;;;5026889;28;20284;-87
2021/10/17 05:49:38;;;;;;;6.28;4.45;;;8.30;99.90;;;;;;5027276;28;20209;-87
2021/10/17 05:52:06;;;;;;;4.33;3.23;;;8.10;99.90;;;;;;5028970;28;20269;-86
2021/10/17 05:54:33;;;;;;;4.15;3.58;;;8.20;99.90;;;;;;5021720;28;20469;-86
2021/10/17 05:57:02;;;;;;;10.60;4.77;;;8.30;99.90;;;;;;5019130;28;20603;-86
2021/10/17 05:59:29;;;;;;;6.03;3.90;;;;;;;;;;5019752;28;20481;-86
2021/10/17 06:01:56;;;;;;;7.40;3.60;;;8.30;99.90;;;;;;5029061;28;20489;-86
2021/10/17 06:04:30;;;;;;;4.97;3.33;;;8.40;99.90;;;;;;5024695;28;20429;-86
2021/10/17 06:07:00;;;;;;;9.40;3.33;;;;;;;;;;5027026;28;20227;-86
2021/10/17 06:09:36;;;;;;;4.90;3.67;;;;;;;;;;5025159;28;20432;-85
2021/10/17 06:12:08;;;;;;;11.73;4.77;;;;;;;;;;5026901;28;20428;-86
2021/10/17 06:14:36;;;;;;;4.80;3.50;;;;;;;;;;5024252;28;20402;-86
2021/10/17 06:22:25;;;;;;;4.27;3.30;;;;;;;;;;5515583;23;20483;-87
2021/10/17 06:25:06;;;;;;;4.70;4.17;;;;;;;;;;5026773;28;20482;-87
2021/10/17 06:27:39;;;;;;;6.73;3.07;;;;;;;;;;5024949;28;20443;-86
2021/10/17 06:30:11;;;;;;;3.53;3.23;;;;;;;;;;5009706;28;20419;-87
2021/10/17 06:32:45;;;;;;;5.20;3.40;;;9.20;99.90;;;;;;5029095;28;20440;-86
2021/10/17 06:35:13;;;;;;;5.20;3.10;;;10.00;99.90;;;;;;5023607;23;20454;-84
2021/10/17 06:37:40;;;;;;;3.53;3.17;;;8.80;99.90;;;;;;5021118;28;20512;-82
2021/10/17 06:40:07;;;;;;;4.90;3.50;;;8.80;99.90;;;;;;5033529;28;20426;-82
2021/10/17 06:42:34;;;;;;;7.90;3.30;;;8.80;99.90;;;;;;5038204;28;20444;-83
2021/10/17 06:45:01;;;;;;;4.57;3.20;;;8.80;99.90;;;;;;5027917;28;20483;-84
2021/10/17 06:47:28;;;;;;;3.23;2.73;;;8.80;99.90;;;;;;5024957;28;20419;-83
2021/10/17 06:49:55;;;;;;;6.40;3.47;;;8.90;99.90;;;;;;5026535;28;20442;-81
2021/10/17 06:52:21;;;;;;;4.30;3.70;;;8.80;99.90;;;;;;5033198;28;20447;-81
2021/10/17 06:54:48;;;;;;;6.90;3.60;;;8.80;99.90;;;;;;5033334;28;20468;-82
2021/10/17 06:57:14;;;;;;;8.77;4.00;;;8.90;99.90;;;;;;5034424;28;20461;-82
2021/10/17 06:59:41;;;;;;;6.10;3.40;;;8.90;99.90;;;;;;5034296;28;20474;-83
2021/10/17 07:02:09;;;;;;;7.27;3.60;;;8.90;99.90;;;;;;5025800;28;20435;-83
2021/10/17 07:04:36;;;;;;;6.50;3.77;;;8.90;99.90;;;;;;5025555;28;20490;-83
2021/10/17 07:07:03;;;;;;;8.87;3.80;;;9.00;99.90;;;;;;5024974;28;20812;-83
2021/10/17 07:09:29;;;;;;;7.57;3.90;;;9.00;99.90;;;;;;5024187;28;20483;-84
2021/10/17 07:11:56;;;;;;;6.33;3.10;;;9.00;99.90;;;;;;5024101;28;20422;-84
2021/10/17 07:14:23;;;;;;;5.40;3.70;;;9.00;99.90;;;;;;5030046;28;20828;-82
2021/10/17 07:16:49;;;;;;;4.83;3.30;;;9.00;99.90;;;;;;5035220;28;20484;-82
2021/10/17 07:19:17;;;;;;;7.10;3.50;;;9.10;99.90;;;;;;5034927;28;20422;-81
2021/10/17 07:21:44;;;;;;;4.73;2.70;;;9.00;99.90;;;;;;5017258;28;20422;-83
2021/10/17 07:24:10;;;;;;;10.30;3.13;;;9.20;99.90;;;;;;5035376;28;20474;-82
2021/10/17 07:26:37;;;;;;;5.90;3.00;;;;;;;;;;5034013;28;20496;-83
2021/10/17 07:29:04;;;;;;;9.03;3.20;;;9.30;99.90;;;;;;5032365;28;20852;-84
2021/10/17 07:31:30;;;;;;;5.73;3.67;;;9.20;99.90;;;;;;5033735;28;20458;-82
2021/10/17 07:33:57;;;;;;;7.30;4.00;;;9.00;99.90;;;;;;5027259;28;20419;-85
2021/10/17 07:36:25;;;;;;;6.67;3.43;;;9.20;99.90;;;;;;5032790;28;20419;-82
2021/10/17 07:38:51;;;;;;;11.50;3.90;;;9.40;99.90;;;;;;5040420;28;20459;-83
2021/10/17 07:41:20;;;;;;;6.60;3.70;;;9.20;99.90;;;;;;5040535;28;20463;-83
2021/10/17 07:43:47;;;;;;;12.23;4.70;;;9.30;99.90;;;;;;5040611;28;20418;-81
2021/10/17 07:46:13;;;;;;;11.90;3.60;;;9.20;99.90;;;;;;5040026;28;20411;-83
2021/10/17 07:48:41;;;;;;;3.47;3.27;;;9.30;99.90;;;;;;5037982;28;20467;-84
2021/10/17 07:51:08;;;;;;;5.83;3.50;;;9.20;99.90;;;;;;5036601;28;20407;-81
2021/10/17 07:53:36;;;;;;;5.23;3.37;;;9.30;99.90;;;;;;5036705;28;20449;-83
2021/10/17 07:56:02;;;;;;;5.40;3.47;;;9.40;99.90;;;;;;5024454;28;20468;-84
2021/10/17 07:58:29;;;;;;;6.90;3.57;;;9.50;99.90;;;;;;5022849;28;20850;-84
2021/10/17 08:00:56;;;;;;;4.23;3.57;;;9.50;99.90;;;;;;5022882;28;20454;-84
2021/10/17 08:03:22;;;;;;;4.13;3.23;;;9.50;99.90;;;;;;5025134;28;20427;-84
2021/10/17 08:05:49;;;;;;;5.57;4.07;;;9.50;99.90;;;;;;5022793;28;20505;-84
2021/10/17 08:08:16;;;;;;;7.87;3.40;;;9.50;99.90;;;;;;5023847;28;20832;-84
2021/10/17 08:10:44;;;;;;;8.00;3.77;;;9.60;99.90;;;;;;5030937;28;20477;-81
2021/10/17 08:13:11;;;;;;;9.93;4.40;;;9.60;99.90;;;;;;5033618;28;20448;-81
2021/10/17 08:15:37;;;;;;;5.70;4.80;;;9.60;99.90;;;;;;5030634;28;20986;-84
2021/10/17 08:18:04;;;;;;;4.63;3.70;;;9.60;99.90;;;;;;5039690;28;20479;-80
2021/10/17 08:20:30;;;;;;;9.13;3.87;;;9.60;99.90;;;;;;5038624;28;20448;-83
2021/10/17 08:22:57;;;;;;;5.33;3.80;;;9.70;99.90;;;;;;5039736;28;20407;-82
2021/10/17 08:25:24;;;;;;;4.53;3.70;;;9.70;99.90;;;;;;5039138;28;20493;-83
2021/10/17 08:27:52;;;;;;;8.83;4.30;;;9.60;99.90;;;;;;5038862;28;20410;-83
2021/10/17 08:30:18;;;;;;;4.57;3.37;;;9.60;99.90;;;;;;5028968;28;20454;-84
2021/10/17 08:32:45;;;;;;;6.20;4.47;;;9.60;99.90;;;;;;5023399;28;20905;-84
2021/10/17 08:35:13;;;;;;;5.05;4.20;;;9.80;99.90;;;;;;5020826;28;20453;-84
2021/10/17 08:37:39;;;;;;;7.73;4.00;;;9.90;99.90;;;;;;5021737;28;20221;-84
2021/10/17 08:40:07;;;;;;;5.13;3.67;;;10.00;99.90;;;;;;5030375;28;20423;-83
2021/10/17 08:42:34;;;;;;;7.83;4.97;;;10.00;99.90;;;;;;5033096;28;20448;-84
2021/10/17 08:45:03;;;;;;;8.63;4.27;;;10.10;99.90;;;;;;5027218;28;20446;-84
2021/10/17 08:47:30;;;;;;;3.47;3.17;;;10.10;99.90;;;;;;5021613;28;20455;-84
2021/10/17 08:49:57;;;;;;;4.97;3.50;;;10.10;99.90;;;;;;5021287;28;20983;-84
2021/10/17 08:52:24;;;;;;;8.87;4.60;;;9.90;99.90;;;;;;5035599;28;20448;-82
2021/10/17 08:54:50;;;;;;;11.60;4.37;;;10.20;99.90;;;;;;5039157;28;20438;-82
2021/10/17 08:57:17;;;;;;;8.30;4.10;;;10.40;99.90;;;;;;5036559;28;20483;-84
2021/10/17 08:59:47;;;;;;;6.63;4.10;;;10.50;99.90;;;;;;5024108;28;20426;-84
2021/10/17 09:02:16;;;;;;;7.47;4.10;;;10.60;99.90;;;;;;5029280;28;20550;-83
2021/10/17 09:04:44;;;;;;;10.30;4.37;;;10.50;99.90;;;;;;5027313;28;20435;-82
2021/10/17 09:07:19;;;;;;;6.13;4.10;;;10.60;99.90;;;;;;5033142;28;21003;-82
2021/10/17 09:10:05;;;;;;;19.27;4.00;;;10.60;99.90;;;;;;5024636;28;20929;-83
2021/10/17 09:12:33;;;;;;;9.80;4.70;;;10.70;99.90;;;;;;5023798;28;20424;-84
2021/10/17 09:15:18;;;;;;;5.83;4.50;;;10.60;99.90;;;;;;5036642;28;20464;-81
2021/10/17 09:18:04;;;;;;;6.77;4.50;;;10.70;99.90;;;;;;5028957;28;20482;-83
2021/10/17 09:20:31;;;;;;;5.00;3.47;;;10.70;99.90;;;;;;5022759;28;20428;-84
2021/10/17 09:23:00;;;;;;;5.07;4.23;;;10.80;99.90;;;;;;5021453;28;20443;-84
2021/10/17 09:25:32;;;;;;;5.90;3.80;;;10.90;99.90;;;;;;5021615;28;20511;-84
2021/10/17 09:27:58;;;;;;;6.30;3.47;;;11.00;99.90;;;;;;5023225;28;20831;-84
2021/10/17 09:30:25;;;;;;;5.30;4.60;;;11.10;99.90;;;;;;5033236;28;20414;-82
2021/10/17 09:32:52;;;;;;;9.07;6.43;;;11.20;99.90;;;;;;5031397;28;20448;-83
2021/10/17 09:35:31;;;;;;;8.60;4.60;;;11.30;99.90;;;;;;5022473;28;20519;-82
2021/10/17 09:38:01;;;;;;;8.17;4.87;;;11.30;99.90;;;;;;5025436;28;20467;-81
2021/10/17 09:40:28;;;;;;;8.67;5.03;;;11.40;99.90;;;;;;5035104;28;20406;-81
2021/10/17 09:43:06;;;;;;;7.17;4.37;;;11.40;99.90;;;;;;5030226;28;20449;-83
2021/10/17 09:45:33;;;;;;;9.70;3.97;;;;;;;;;;5029193;28;20503;-82
2021/10/17 09:48:00;;;;;;;5.10;3.90;;;11.40;99.90;;;;;;5038299;28;20471;-83
2021/10/17 09:50:28;;;;;;;6.00;4.27;;;11.80;99.90;;;;;;5037394;28;20414;-84
2021/10/17 09:53:11;;;;;;;5.33;4.50;;;11.50;99.90;;;;;;5037194;28;20474;-83
2021/10/17 09:55:38;;;;;;;6.70;4.70;;;11.40;99.90;;;;;;5026032;28;20608;-85
2021/10/17 09:58:06;;;;;;;6.10;3.50;;;11.60;99.90;;;;;;5038146;28;20490;-83
2021/10/17 10:00:36;;;;;;;7.60;4.63;;;11.60;99.90;;;;;;5036718;28;20555;-83
2021/10/17 10:03:06;;;;;;;6.53;4.57;;;11.60;99.90;;;;;;5023181;28;20456;-84
2021/10/17 10:05:35;;;;;;;6.63;4.00;;;11.70;99.90;;;;;;5027131;28;20491;-82
2021/10/17 10:08:04;;;;;;;5.77;5.17;;;11.70;99.90;;;;;;5022036;28;20498;-83
2021/10/17 10:10:32;;;;;;;9.80;4.93;;;11.70;99.90;;;;;;5024849;28;20448;-85
2021/10/17 10:13:03;;;;;;;5.30;4.13;;;11.70;99.90;;;;;;5022701;28;20451;-84
2021/10/17 10:15:30;;;;;;;7.27;3.97;;;11.90;99.90;;;;;;5029374;28;20443;-83
2021/10/17 10:17:58;;;;;;;8.77;5.30;;;11.90;99.90;;;;;;5029330;28;20487;-84
2021/10/17 10:20:25;;;;;;;6.20;4.10;;;12.10;99.90;;;;;;5032865;28;20439;-84
2021/10/17 10:22:54;;;;;;;5.63;4.30;;;12.30;99.90;;;;;;5030087;28;21033;-81
2021/10/17 10:25:22;;;;;;;8.20;3.87;;;12.30;99.90;;;;;;5032263;28;20495;-84
2021/10/17 10:27:49;;;;;;;12.10;4.63;;;12.30;99.90;;;;;;5032759;28;20444;-83
2021/10/17 10:30:24;;;;;;;6.30;4.80;;;12.40;99.90;;;;;;5028245;28;20450;-84
2021/10/17 10:33:15;;;;;;;5.80;4.70;;;12.30;99.90;;;;;;5029441;28;20399;-84
2021/10/17 10:36:05;;;;;;;8.67;3.83;;;12.40;99.90;;;;;;5031959;28;20481;-81
2021/10/17 10:39:16;;;;;;;8.70;4.13;;;12.40;99.90;;;;;;5029251;28;20463;-83
2021/10/17 10:41:56;;;;;;;7.03;4.73;;;12.50;99.90;;;;;;5032553;28;20497;-83
2021/10/17 10:44:27;;;;;;;7.73;2.93;;;12.10;99.90;;;;;;5027748;28;20525;-84
2021/10/17 10:46:57;;;;;;;7.63;3.40;;;12.40;99.90;;;;;;5026547;28;20513;-83
2021/10/17 10:49:39;;;;;;;6.13;3.40;;;12.30;99.90;;;;;;5027164;28;20857;-86
2021/10/17 10:52:31;;;;;;;11.90;3.80;;;12.40;99.90;;;;;;5036194;28;20448;-83
2021/10/17 10:55:00;;;;;;;6.13;3.20;;;12.40;99.90;;;;;;5037514;28;20471;-81
2021/10/17 10:57:30;;;;;;;7.60;4.10;;;12.50;99.90;;;;;;5037056;28;20436;-80
2021/10/17 11:00:01;;;;;;;5.67;3.23;;;12.50;99.90;;;;;;5037122;28;20411;-82
2021/10/17 11:02:28;;;;;;;10.63;3.17;;;12.40;99.90;;;;;;5035955;28;20422;-84
2021/10/17 11:05:03;;;;;;;7.60;3.63;;;12.30;99.90;;;;;;5035674;28;20426;-84
2021/10/17 11:07:40;;;;;;;5.33;3.00;;;12.30;99.90;;;;;;5033180;28;20488;-82
2021/10/17 11:10:36;;;;;;;5.63;3.53;;;12.30;99.90;;;;;;5034595;28;20448;-82
2021/10/17 11:13:06;;;;;;;10.30;4.10;;;12.30;99.90;;;;;;5036892;28;20452;-84
2021/10/17 11:15:35;;;;;;;4.23;3.83;;;12.30;99.90;;;;;;5036269;28;20460;-87
2021/10/17 11:18:04;;;;;;;9.70;3.60;;;12.40;99.90;;;;;;5035732;28;20468;-84
2021/10/17 11:20:33;;;;;;;7.60;3.33;;;12.50;99.90;;;;;;5033520;28;20476;-85
2021/10/17 11:23:00;;;;;;;7.00;3.00;;;;;;;;;;5029437;28;20467;-84
2021/10/17 11:25:29;;;;;;;11.20;6.20;;;12.60;99.90;;;;;;5032102;28;20499;-83
2021/10/17 11:27:56;;;;;;;10.53;3.37;;;12.60;99.90;;;;;;5036792;28;20463;-85
2021/10/17 11:30:26;;;;;;;8.57;3.60;;;12.60;99.90;;;;;;5037248;28;20464;-84
2021/10/17 11:32:54;;;;;;;6.03;3.23;;;12.70;99.90;;;;;;5037714;28;20428;-83
2021/10/17 11:35:27;;;;;;;5.10;3.57;;;12.70;99.90;;;;;;5034764;28;20503;-84
2021/10/17 11:37:54;;;;;;;13.40;4.10;;;12.70;99.90;;;;;;5034273;28;20538;-81
2021/10/17 11:40:21;;;;;;;6.90;3.43;;;12.70;99.90;;;;;;5035117;28;20455;-83
2021/10/17 11:42:49;;;;;;;5.90;3.27;;;12.70;99.90;;;;;;5033979;28;20455;-84
2021/10/17 11:45:19;;;;;;;8.90;3.90;;;12.70;99.90;;;;;;5031581;28;20483;-85
2021/10/17 11:47:48;;;;;;;10.17;4.30;;;12.80;99.90;;;;;;5032365;28;20452;-83
2021/10/17 11:50:19;;;;;;;5.40;3.40;;;12.80;99.90;;;;;;5036392;28;20458;-83
2021/10/17 11:52:51;;;;;;;4.50;3.73;;;12.80;99.90;;;;;;5036520;28;20434;-84
2021/10/17 11:55:31;;;;;;;9.43;4.13;;;12.90;99.90;;;;;;5030101;28;20522;-84
2021/10/17 11:57:58;;;;;;;4.30;3.10;;;12.80;99.90;;;;;;5027280;28;20467;-85
2021/10/17 12:00:26;;;;;;;11.27;3.93;;;12.90;99.90;;;;;;5028135;28;20942;-84
2021/10/17 12:02:55;;;;;;;6.00;3.90;;;12.80;99.90;;;;;;5029375;28;20516;-84
2021/10/17 12:05:23;;;;;;;9.50;2.93;;;12.80;99.90;;;;;;5027215;28;20530;-85
2021/10/17 12:07:50;;;;;;;9.03;3.73;;;12.90;99.90;;;;;;5027650;28;20852;-84
2021/10/17 12:10:17;;;;;;;9.30;4.10;;;12.90;99.90;;;;;;5026923;28;20536;-83
2021/10/17 12:12:44;;;;;;;5.30;4.23;;;12.80;99.90;;;;;;5028669;28;20444;-84
2021/10/17 12:15:13;;;;;;;6.20;3.77;;;12.80;99.90;;;;;;5027498;28;20472;-83
2021/10/17 12:17:40;;;;;;;4.80;3.90;;;12.80;99.90;;;;;;5024889;28;20935;-84
2021/10/17 12:20:13;;;;;;;7.37;4.00;;;12.90;99.90;;;;;;5025170;28;20832;-84
2021/10/17 12:22:42;;;;;;;10.27;4.33;;;12.80;99.90;;;;;;5030319;28;20425;-82
2021/10/17 12:25:10;;;;;;;7.57;4.80;;;12.90;99.90;;;;;;5029725;28;20463;-83
2021/10/17 12:27:39;;;;;;;8.53;3.70;;;12.90;99.90;;;;;;5032243;28;20443;-84
2021/10/17 12:30:09;;;;;;;8.50;4.67;;;12.90;99.90;;;;;;5033827;28;20424;-83
2021/10/17 12:32:45;;;;;;;7.60;3.53;;;12.90;99.90;;;;;;5028182;28;20845;-82
2021/10/17 13:29:56;;;;;;;12.43;4.60;;;12.60;99.90;;;;;;5205188;27;20507;-86
2021/10/17 13:32:25;;;;;;;7.70;3.53;;;;;;;;;;5204686;27;20460;-86
2021/10/17 13:34:52;;;;;;;10.63;3.47;;;12.20;99.90;;;;;;5202993;27;20508;-86
2021/10/17 13:37:20;;;;;;;7.37;4.03;;;12.20;99.90;;;;;;5204271;27;20418;-87
2021/10/17 13:39:47;;;;;;;6.87;3.53;;;;;;;;;;5503274;22;20464;-85
2021/10/17 13:42:14;;;;;;;3.90;3.50;;;;;;;;;;5122139;28;20402;-87
2021/10/17 13:44:41;;;;;;;5.70;3.90;;;12.40;99.90;;;;;;5121593;28;20434;-86
2021/10/17 13:47:09;;;;;;;4.27;3.40;;;12.40;99.90;;;;;;5127386;28;20537;-86
2021/10/17 13:49:36;;;;;;;6.60;3.90;;;;;;;;;;5125692;28;20440;-87
2021/10/17 13:52:03;;;;;;;10.47;4.20;;;;;;;;;;5157878;22;20464;-85
2021/10/17 13:54:30;;;;;;;6.43;3.80;;;12.50;99.90;;;;;;5154264;27;20418;-82
2021/10/17 13:56:56;;;;;;;8.83;4.10;;;12.40;99.90;;;;;;5153774;27;20423;-83
2021/10/17 13:59:24;;;;;;;8.10;3.67;;;;;;;;;;5152823;27;20483;-84
2021/10/17 14:01:51;;;;;;;6.60;4.80;;;12.30;99.90;;;;;;5153739;27;20518;-83
2021/10/17 14:04:20;;;;;;;6.40;4.10;;;12.30;99.90;;;;;;5146478;27;20465;-84
2021/10/17 14:06:47;;;;;;;6.57;4.37;;;;;;;;;;5146204;27;20447;-83
2021/10/17 14:09:15;;;;;;;7.40;4.70;;;12.30;99.90;;;;;;5150397;27;20441;-83
2021/10/17 14:11:42;;;;;;;9.63;4.83;;;11.90;99.90;;;;;;5152598;27;20401;-83
2021/10/17 14:14:09;;;;;;;15.20;6.13;;;12.40;99.90;;;;;;5152731;27;20465;-84